Time;durP1;ratioP1;P1;durP2;ratioP2;P2;SDS_P1;SDS_P2;PMS_P1;PMS_P2;Temp;Humidity;BMP_temperature;BMP_pressure;BME280_temperature;BME280_humidity;BME280_pressure;Samples;Min_cycle;Max_cycle;Signal;HPM_P1;HPM_P2
2023/07/10 00:01:18;;;;;;;5.28;4.78;;;28.10;36.80;;;;;;20587;6826;311055;-74
2023/07/10 00:03:44;;;;;;;5.23;4.73;;;28.20;37.50;;;;;;20575;6826;278911;-74
2023/07/10 00:06:09;;;;;;;4.80;4.33;;;28.50;35.70;;;;;;20795;6826;66933;-74
2023/07/10 00:08:36;;;;;;;5.18;4.62;;;28.40;35.90;;;;;;20570;6826;280660;-74
2023/07/10 00:11:02;;;;;;;5.33;4.93;;;28.70;35.40;;;;;;20482;6826;310848;-73
2023/07/10 00:13:28;;;;;;;5.28;4.78;;;28.70;35.40;;;;;;20575;6826;306155;-73
2023/07/10 00:15:54;;;;;;;5.53;5.00;;;28.80;34.90;;;;;;20542;6826;278011;-74
2023/07/10 00:18:19;;;;;;;4.77;4.37;;;29.00;35.30;;;;;;20550;6826;282544;-74
2023/07/10 00:20:45;;;;;;;4.83;4.33;;;29.10;34.60;;;;;;20563;6826;307686;-74
2023/07/10 00:23:10;;;;;;;5.70;4.63;;;29.10;34.70;;;;;;20789;6826;67835;-74
2023/07/10 00:25:36;;;;;;;5.50;5.10;;;28.80;35.00;;;;;;20583;6826;278524;-74
2023/07/10 00:28:01;;;;;;;5.43;4.93;;;28.70;35.90;;;;;;20585;6826;277573;-74
2023/07/10 00:30:27;;;;;;;5.13;4.70;;;28.80;36.50;;;;;;20585;6825;279017;-74
2023/07/10 00:32:52;;;;;;;4.57;4.27;;;28.80;36.70;;;;;;20793;6825;66792;-74
2023/07/10 00:35:18;;;;;;;5.77;5.00;;;28.40;36.90;;;;;;20790;6826;67603;-74
2023/07/10 00:37:47;;;;;;;5.10;4.70;;;27.90;37.40;;;;;;20559;6826;278444;-74
2023/07/10 00:40:20;;;;;;;5.60;5.13;;;28.00;38.20;;;;;;20575;6826;279034;-73
2023/07/10 00:42:46;;;;;;;5.70;5.10;;;28.00;38.20;;;;;;20576;6826;306727;-74
2023/07/10 00:45:11;;;;;;;5.17;4.77;;;28.10;38.00;;;;;;20786;6826;89571;-73
2023/07/10 00:47:38;;;;;;;5.57;5.00;;;27.80;38.10;;;;;;20786;6826;68329;-74
2023/07/10 00:50:17;;;;;;;5.30;4.90;;;27.10;39.30;;;;;;20783;6826;67850;-74
2023/07/10 00:52:46;;;;;;;5.37;4.97;;;27.00;39.20;;;;;;20782;6826;76310;-74
2023/07/10 00:55:18;;;;;;;5.40;4.90;;;26.70;39.90;;;;;;20579;6826;301314;-74
2023/07/10 00:57:43;;;;;;;5.23;4.90;;;26.80;41.00;;;;;;20787;6826;66714;-74
2023/07/10 01:00:15;;;;;;;6.27;5.47;;;26.70;40.80;;;;;;20574;6826;311561;-74
2023/07/10 01:02:41;;;;;;;5.40;5.00;;;27.00;41.10;;;;;;20575;6826;300875;-74
2023/07/10 01:05:07;;;;;;;6.13;5.53;;;27.00;41.10;;;;;;20577;6826;306796;-74
2023/07/10 01:07:32;;;;;;;5.20;4.80;;;27.20;41.00;;;;;;20787;6826;67582;-74
2023/07/10 01:10:01;;;;;;;5.75;4.85;;;26.90;40.90;;;;;;20563;6826;307898;-74
2023/07/10 01:12:26;;;;;;;5.50;5.10;;;26.90;41.30;;;;;;20563;6826;307193;-73
2023/07/10 01:14:52;;;;;;;5.80;5.30;;;27.10;41.10;;;;;;20575;6826;315340;-74
2023/07/10 01:17:19;;;;;;;6.13;5.10;;;27.20;40.80;;;;;;20794;6826;71399;-74
2023/07/10 01:19:45;;;;;;;5.47;5.00;;;26.90;40.80;;;;;;20787;6826;74464;-74
2023/07/10 01:22:09;;;;;;;6.40;5.80;;;26.60;41.20;;;;;;20784;6826;66630;-74
2023/07/10 01:24:36;;;;;;;5.07;4.70;;;26.30;41.50;;;;;;20802;6826;68266;-73
2023/07/10 01:27:01;;;;;;;5.78;5.00;;;26.30;42.10;;;;;;20587;6826;277954;-73
2023/07/10 01:29:43;;;;;;;6.93;5.50;;;26.20;42.10;;;;;;20595;6826;277507;-74
2023/07/10 01:32:08;;;;;;;5.70;5.30;;;26.50;41.70;;;;;;20297;6826;278061;-74
2023/07/10 01:34:34;;;;;;;5.60;5.10;;;26.80;41.30;;;;;;20564;6826;306709;-74
2023/07/10 01:37:00;;;;;;;5.60;5.10;;;26.80;41.00;;;;;;20788;6826;66776;-74
2023/07/10 01:39:42;;;;;;;4.80;4.50;;;26.70;41.00;;;;;;20789;6826;68224;-74
2023/07/10 01:42:08;;;;;;;6.80;5.07;;;26.40;41.50;;;;;;20573;6824;311899;-74
2023/07/10 01:44:33;;;;;;;5.33;5.03;;;26.50;42.00;;;;;;20786;6826;69971;-74
2023/07/10 01:46:59;;;;;;;8.27;5.03;;;26.10;42.60;;;;;;20790;6826;67037;-74
2023/07/10 01:49:25;;;;;;;5.77;5.20;;;26.10;41.80;;;;;;20576;6826;307467;-74
2023/07/10 01:51:50;;;;;;;5.90;5.23;;;26.30;42.40;;;;;;20758;6826;69232;-74
2023/07/10 01:54:17;;;;;;;5.77;5.20;;;26.40;42.50;;;;;;20540;6826;299202;-74
2023/07/10 01:56:44;;;;;;;7.00;5.20;;;26.40;42.40;;;;;;20770;6826;117137;-74
2023/07/10 01:59:09;;;;;;;5.57;5.07;;;26.30;42.20;;;;;;20780;6826;117174;-74
2023/07/10 02:01:35;;;;;;;5.15;4.75;;;26.00;42.60;;;;;;20747;6826;117568;-74
2023/07/10 02:04:00;;;;;;;5.68;5.25;;;25.80;42.90;;;;;;20501;6837;307972;-74
2023/07/10 02:06:26;;;;;;;5.72;5.28;;;26.00;43.40;;;;;;20529;6837;296523;-74
2023/07/10 02:08:51;;;;;;;5.65;5.28;;;26.30;42.80;;;;;;20527;6837;307821;-74
2023/07/10 02:11:17;;;;;;;5.90;5.47;;;26.60;42.30;;;;;;20527;6837;277947;-74
2023/07/10 02:13:42;;;;;;;6.18;5.57;;;26.80;41.70;;;;;;20506;6837;307963;-74
2023/07/10 02:16:08;;;;;;;5.30;4.97;;;26.90;41.60;;;;;;20739;6837;117433;-74
2023/07/10 02:18:34;;;;;;;5.67;5.17;;;26.60;41.70;;;;;;20739;6837;122961;-74
2023/07/10 02:20:59;;;;;;;5.65;5.20;;;26.30;42.10;;;;;;20531;6837;278104;-74
2023/07/10 02:23:25;;;;;;;5.80;5.30;;;26.50;41.90;;;;;;20525;6837;312223;-74
2023/07/10 02:25:51;;;;;;;5.73;5.27;;;26.50;41.90;;;;;;20711;6837;117820;-74
2023/07/10 02:28:17;;;;;;;5.50;5.00;;;26.00;42.30;;;;;;20732;6837;117855;-74
2023/07/10 02:30:43;;;;;;;5.35;4.85;;;26.00;42.30;;;;;;20524;6837;307632;-74
2023/07/10 02:33:08;;;;;;;5.72;5.32;;;26.10;42.40;;;;;;20500;6837;307080;-74
2023/07/10 02:35:35;;;;;;;5.07;4.67;;;26.30;41.80;;;;;;20711;6837;117214;-74
2023/07/10 02:38:00;;;;;;;6.03;5.62;;;26.30;41.70;;;;;;20480;6837;333192;-74
2023/07/10 02:40:26;;;;;;;5.35;4.95;;;26.50;41.80;;;;;;20505;6837;278432;-74
2023/07/10 02:42:51;;;;;;;6.07;5.07;;;26.70;41.60;;;;;;20714;6837;123141;-73
2023/07/10 02:45:19;;;;;;;5.50;5.00;;;26.70;41.70;;;;;;20510;6837;277927;-73
2023/07/10 02:47:45;;;;;;;5.40;5.00;;;26.60;41.60;;;;;;20501;6837;307080;-73
2023/07/10 02:50:10;;;;;;;5.70;5.23;;;26.90;40.90;;;;;;20740;6837;117299;-74
2023/07/10 02:52:36;;;;;;;5.62;5.22;;;26.80;41.00;;;;;;20532;6837;279559;-73
2023/07/10 02:55:01;;;;;;;4.87;4.53;;;26.80;41.80;;;;;;20734;6835;117028;-73
2023/07/10 02:57:27;;;;;;;5.32;4.93;;;26.70;41.90;;;;;;20528;6837;279220;-73
2023/07/10 02:59:52;;;;;;;5.87;5.47;;;26.70;42.80;;;;;;20511;6837;323580;-74
2023/07/10 03:02:18;;;;;;;5.53;5.13;;;26.90;43.00;;;;;;20722;6837;118154;-74
2023/07/10 03:04:44;;;;;;;6.00;5.50;;;26.60;43.00;;;;;;20509;6837;283869;-74
2023/07/10 03:07:09;;;;;;;5.57;5.17;;;26.60;43.20;;;;;;20725;6837;122908;-74
2023/07/10 03:09:35;;;;;;;5.62;5.22;;;26.40;43.30;;;;;;20524;6837;283178;-74
2023/07/10 03:12:01;;;;;;;5.95;5.30;;;26.60;43.00;;;;;;20495;6837;307528;-73
2023/07/10 03:14:26;;;;;;;5.30;4.80;;;26.60;43.00;;;;;;20733;6837;117254;-74
2023/07/10 03:16:53;;;;;;;5.80;5.12;;;26.40;43.20;;;;;;20532;6837;277663;-74
2023/07/10 03:19:18;;;;;;;5.47;4.97;;;26.40;43.10;;;;;;20737;6837;117057;-73
2023/07/10 03:21:44;;;;;;;5.45;4.85;;;26.30;43.20;;;;;;20721;6837;119850;-74
2023/07/10 03:24:09;;;;;;;5.47;4.97;;;26.00;43.70;;;;;;20732;6837;120427;-74
2023/07/10 03:26:35;;;;;;;5.68;5.18;;;25.60;44.20;;;;;;20531;6837;278374;-74
2023/07/10 03:29:01;;;;;;;5.43;5.03;;;25.70;44.10;;;;;;20740;6837;117139;-73
2023/07/10 03:31:27;;;;;;;5.70;5.20;;;25.70;44.60;;;;;;20429;6837;343884;-74
2023/07/10 03:33:53;;;;;;;5.97;5.27;;;25.80;44.50;;;;;;20701;6837;117706;-74
2023/07/10 03:36:19;;;;;;;5.33;4.93;;;25.80;44.50;;;;;;20719;6837;117281;-74
2023/07/10 03:38:45;;;;;;;5.75;5.25;;;25.70;44.40;;;;;;20507;6837;337584;-74
2023/07/10 03:41:11;;;;;;;6.20;5.67;;;25.70;44.40;;;;;;20503;6837;312580;-73
2023/07/10 03:43:36;;;;;;;6.40;5.80;;;26.00;43.90;;;;;;20511;6837;283755;-73
2023/07/10 03:46:02;;;;;;;6.22;5.55;;;26.30;43.30;;;;;;20501;6837;279459;-73
2023/07/10 03:48:27;;;;;;;5.87;5.28;;;26.40;42.90;;;;;;20524;6837;327365;-73
2023/07/10 03:50:53;;;;;;;5.90;5.50;;;26.60;42.60;;;;;;20525;6837;311184;-73
2023/07/10 03:53:18;;;;;;;5.03;4.70;;;26.60;43.10;;;;;;20733;6837;117167;-73
2023/07/10 03:55:50;;;;;;;5.23;4.80;;;26.40;42.70;;;;;;20706;6837;118779;-74
2023/07/10 03:58:22;;;;;;;5.83;5.10;;;26.00;43.20;;;;;;20730;6837;117517;-73
2023/07/10 04:00:48;;;;;;;6.87;5.30;;;25.70;43.70;;;;;;20402;6837;283686;-74
2023/07/10 04:03:13;;;;;;;5.68;5.18;;;25.80;43.50;;;;;;20714;6837;118316;-74
2023/07/10 04:05:39;;;;;;;5.30;4.77;;;25.80;43.40;;;;;;20703;6836;123281;-74
2023/07/10 04:08:04;;;;;;;5.80;5.35;;;25.60;43.50;;;;;;20509;6837;295905;-73
2023/07/10 04:10:30;;;;;;;5.70;5.00;;;25.80;43.20;;;;;;20526;6837;323539;-73
2023/07/10 04:12:56;;;;;;;5.35;4.95;;;26.20;42.80;;;;;;20526;6837;277836;-71
2023/07/10 04:15:21;;;;;;;6.37;5.18;;;26.50;42.70;;;;;;20531;6837;278144;-71
2023/07/10 04:17:47;;;;;;;5.22;4.82;;;26.80;42.60;;;;;;20514;6837;294005;-71
2023/07/10 04:20:12;;;;;;;8.60;5.30;;;27.00;42.90;;;;;;20749;6837;117235;-72
2023/07/10 04:22:38;;;;;;;6.85;5.37;;;27.00;42.90;;;;;;20527;6837;307586;-72
2023/07/10 04:25:05;;;;;;;5.67;5.27;;;27.10;43.10;;;;;;20529;6837;278400;-71
2023/07/10 04:27:29;;;;;;;5.30;4.90;;;27.40;43.40;;;;;;20734;6837;117519;-72
2023/07/10 04:29:55;;;;;;;5.70;5.20;;;27.30;43.30;;;;;;20507;6837;311963;-72
2023/07/10 04:32:20;;;;;;;5.40;4.83;;;27.40;43.70;;;;;;20744;6837;117308;-72
2023/07/10 04:34:46;;;;;;;5.45;5.00;;;27.40;43.50;;;;;;20536;6837;282900;-72
2023/07/10 04:37:11;;;;;;;5.13;4.67;;;27.60;43.50;;;;;;20738;6837;117115;-72
2023/07/10 04:39:37;;;;;;;5.23;4.93;;;27.50;43.50;;;;;;20743;6837;117074;-72
2023/07/10 04:42:03;;;;;;;5.72;5.32;;;27.30;43.90;;;;;;20508;6837;308047;-72
2023/07/10 04:44:30;;;;;;;5.73;5.23;;;27.50;44.10;;;;;;20521;6837;308373;-72
2023/07/10 04:46:54;;;;;;;6.20;5.60;;;27.80;43.60;;;;;;20524;6837;278450;-74
2023/07/10 04:49:20;;;;;;;6.27;5.80;;;28.00;42.60;;;;;;20719;6837;118755;-73
2023/07/10 04:51:46;;;;;;;5.57;5.10;;;27.80;41.60;;;;;;20508;6837;312583;-71
2023/07/10 04:54:11;;;;;;;5.83;5.33;;;27.80;41.60;;;;;;20666;6837;117923;-71
2023/07/10 04:56:38;;;;;;;5.93;5.43;;;27.40;42.80;;;;;;20519;6837;341645;-70
2023/07/10 04:59:03;;;;;;;5.40;5.03;;;27.40;42.20;;;;;;20725;6837;117133;-71
2023/07/10 05:01:29;;;;;;;5.30;4.90;;;27.30;42.40;;;;;;20724;6837;118278;-72
2023/07/10 05:03:54;;;;;;;5.75;5.25;;;27.10;42.70;;;;;;20501;6837;311716;-72
2023/07/10 05:06:20;;;;;;;5.90;5.40;;;27.20;42.40;;;;;;20505;6837;307091;-70
2023/07/10 05:08:45;;;;;;;5.70;5.20;;;27.60;41.70;;;;;;20722;6837;117147;-74
2023/07/10 05:11:11;;;;;;;5.70;5.30;;;27.60;41.80;;;;;;20520;6837;279632;-71
2023/07/10 05:13:37;;;;;;;5.72;5.30;;;27.80;41.60;;;;;;20517;6837;312070;-76
2023/07/10 05:16:02;;;;;;;5.32;5.03;;;28.10;41.40;;;;;;20515;6837;279773;-72
2023/07/10 05:18:29;;;;;;;5.50;5.00;;;28.40;41.10;;;;;;20726;6836;117687;-71
2023/07/10 05:20:54;;;;;;;5.63;5.20;;;28.30;41.60;;;;;;20492;6837;286673;-71
2023/07/10 05:23:20;;;;;;;5.53;5.12;;;28.30;41.60;;;;;;20492;6837;337512;-72
2023/07/10 05:25:55;;;;;;;5.43;5.03;;;28.50;41.30;;;;;;20488;6837;299848;-72
2023/07/10 05:28:21;;;;;;;5.47;5.07;;;28.70;40.90;;;;;;20510;6837;277961;-72
2023/07/10 05:30:47;;;;;;;5.73;5.23;;;28.60;40.90;;;;;;20728;6837;117155;-72
2023/07/10 05:33:14;;;;;;;5.95;5.40;;;28.60;40.80;;;;;;20516;6837;285589;-73
2023/07/10 05:35:39;;;;;;;5.57;5.17;;;28.50;40.60;;;;;;20509;6837;312162;-74
2023/07/10 05:38:05;;;;;;;5.40;5.00;;;28.80;40.20;;;;;;20490;6837;312449;-71
2023/07/10 05:40:30;;;;;;;5.57;5.07;;;29.00;39.70;;;;;;20696;6846;117174;-71
2023/07/10 05:42:57;;;;;;;5.27;4.77;;;28.60;40.20;;;;;;20691;6846;119827;-71
2023/07/10 05:45:22;;;;;;;5.40;5.00;;;28.50;40.20;;;;;;20714;6845;117632;-72
2023/07/10 05:47:48;;;;;;;5.43;5.03;;;28.20;40.70;;;;;;20711;6841;127866;-71
2023/07/10 05:50:14;;;;;;;5.65;5.25;;;28.10;40.70;;;;;;20456;6860;337054;-71
2023/07/10 05:52:40;;;;;;;5.90;5.28;;;28.40;40.40;;;;;;20460;6860;279082;-71
2023/07/10 05:55:05;;;;;;;5.82;5.40;;;28.70;39.90;;;;;;20463;6861;278787;-72
2023/07/10 05:57:31;;;;;;;5.40;5.00;;;29.10;39.50;;;;;;20460;6861;307226;-71
2023/07/10 05:59:56;;;;;;;5.47;4.97;;;29.30;39.50;;;;;;20493;6845;282159;-72
2023/07/10 06:02:22;;;;;;;5.20;4.80;;;29.30;39.10;;;;;;20719;6845;117368;-73
2023/07/10 06:04:48;;;;;;;5.67;5.03;;;29.10;39.50;;;;;;20712;6845;119797;-72
2023/07/10 06:07:14;;;;;;;5.13;4.70;;;28.50;40.40;;;;;;20711;6845;117611;-71
2023/07/10 06:09:40;;;;;;;6.33;5.30;;;28.50;40.40;;;;;;20489;6845;294047;-72
2023/07/10 06:12:06;;;;;;;5.70;5.22;;;28.70;40.30;;;;;;20516;6841;291656;-71
2023/07/10 06:14:31;;;;;;;5.63;4.73;;;29.10;39.70;;;;;;20716;6845;119705;-71
2023/07/10 06:16:57;;;;;;;5.73;5.17;;;29.20;39.70;;;;;;20736;6841;117730;-71
2023/07/10 06:19:22;;;;;;;5.20;4.80;;;29.10;40.00;;;;;;20727;6841;117110;-71
2023/07/10 06:21:49;;;;;;;5.40;5.00;;;29.60;39.40;;;;;;20467;6851;308983;-71
2023/07/10 06:24:14;;;;;;;5.73;5.13;;;29.60;39.30;;;;;;20494;6845;308386;-71
2023/07/10 06:26:40;;;;;;;5.82;5.32;;;30.80;37.80;;;;;;20456;6861;278452;-71
2023/07/10 06:29:06;;;;;;;5.57;5.17;;;30.80;37.80;;;;;;20668;6859;117213;-74
2023/07/10 06:31:31;;;;;;;5.75;5.25;;;31.10;37.90;;;;;;20462;6860;293012;-71
2023/07/10 06:33:57;;;;;;;5.43;4.73;;;31.50;36.80;;;;;;20655;6860;117258;-72
2023/07/10 06:36:23;;;;;;;5.55;5.15;;;31.50;36.70;;;;;;20487;6845;309902;-72
2023/07/10 06:38:48;;;;;;;5.37;4.87;;;31.70;36.30;;;;;;20729;6840;117069;-71
2023/07/10 06:41:14;;;;;;;6.35;4.90;;;31.60;36.60;;;;;;20486;6850;278134;-73
2023/07/10 06:43:39;;;;;;;5.40;5.00;;;31.70;36.70;;;;;;20499;6845;308933;-72
2023/07/10 06:46:05;;;;;;;5.80;5.40;;;31.90;36.20;;;;;;20453;6860;307464;-72
2023/07/10 06:48:30;;;;;;;6.13;5.70;;;32.40;36.20;;;;;;20719;6845;117021;-72
2023/07/10 06:50:57;;;;;;;7.35;5.82;;;32.70;35.60;;;;;;20513;6841;281025;-72
2023/07/10 06:53:22;;;;;;;6.47;5.63;;;32.70;35.40;;;;;;20725;6841;117142;-72
2023/07/10 06:55:55;;;;;;;5.53;5.00;;;32.70;35.80;;;;;;20699;6841;122988;-72
2023/07/10 06:58:20;;;;;;;5.53;5.23;;;32.50;36.20;;;;;;20723;6841;119562;-72
2023/07/10 07:00:46;;;;;;;5.83;5.33;;;32.80;35.30;;;;;;20517;6841;282975;-72
2023/07/10 07:03:12;;;;;;;8.80;5.23;;;32.80;35.30;;;;;;20723;6841;119272;-72
2023/07/10 07:05:37;;;;;;;5.33;4.93;;;32.80;35.30;;;;;;20726;6841;119233;-72
2023/07/10 07:08:04;;;;;;;5.40;5.03;;;32.80;35.60;;;;;;20494;6841;278577;-72
2023/07/10 07:10:32;;;;;;;5.97;5.15;;;33.00;35.10;;;;;;20518;6841;307449;-72
2023/07/10 07:12:55;;;;;;;5.75;5.25;;;33.20;34.80;;;;;;20519;6841;309904;-72
2023/07/10 07:15:21;;;;;;;5.55;5.10;;;33.50;34.40;;;;;;20530;6841;285779;-72
2023/07/10 07:17:47;;;;;;;5.60;5.10;;;33.50;34.70;;;;;;20502;6841;337010;-72
2023/07/10 07:20:13;;;;;;;5.70;5.20;;;33.50;34.70;;;;;;20511;6841;308386;-72
2023/07/10 07:22:39;;;;;;;5.57;5.13;;;33.50;35.00;;;;;;20730;6841;121591;-72
2023/07/10 07:25:05;;;;;;;5.85;5.35;;;33.00;35.30;;;;;;20515;6841;307897;-72
2023/07/10 07:27:33;;;;;;;5.87;5.20;;;32.80;36.50;;;;;;20725;6841;117203;-72
2023/07/10 07:29:58;;;;;;;5.83;5.27;;;32.80;36.40;;;;;;20495;6841;309831;-73
2023/07/10 07:32:24;;;;;;;6.05;5.50;;;32.90;36.30;;;;;;20505;6841;307837;-71
2023/07/10 07:34:49;;;;;;;5.47;5.07;;;33.00;36.60;;;;;;20515;6841;281553;-72
2023/07/10 07:37:16;;;;;;;5.97;5.27;;;33.10;36.50;;;;;;20519;6841;309550;-73
2023/07/10 07:39:41;;;;;;;5.80;5.30;;;33.30;36.70;;;;;;20494;6841;277621;-73
2023/07/10 07:42:06;;;;;;;5.33;4.83;;;33.60;36.70;;;;;;20729;6839;121241;-74
2023/07/10 07:44:32;;;;;;;4.97;4.57;;;33.50;36.40;;;;;;20732;6840;117597;-73
2023/07/10 07:46:57;;;;;;;5.90;5.40;;;33.20;36.60;;;;;;20725;6840;117077;-74
2023/07/10 07:49:24;;;;;;;5.70;5.23;;;32.80;36.90;;;;;;20516;6840;307361;-71
2023/07/10 07:51:48;;;;;;;5.97;5.20;;;32.80;37.30;;;;;;20706;6840;119849;-72
2023/07/10 07:54:14;;;;;;;5.83;5.33;;;32.70;37.40;;;;;;20728;6840;117726;-72
2023/07/10 07:56:41;;;;;;;6.10;5.50;;;32.50;37.80;;;;;;20518;6840;278065;-73
2023/07/10 07:59:06;;;;;;;7.33;5.50;;;32.80;37.80;;;;;;20734;6840;117581;-72
2023/07/10 08:01:33;;;;;;;6.20;5.60;;;33.20;37.40;;;;;;20526;6841;279823;-71
2023/07/10 08:03:58;;;;;;;5.70;5.28;;;33.20;37.40;;;;;;20506;6841;336565;-72
2023/07/10 08:06:27;;;;;;;5.70;5.30;;;33.60;37.00;;;;;;20527;6841;308321;-72
2023/07/10 08:08:53;;;;;;;6.10;5.33;;;33.90;36.30;;;;;;20728;6841;117312;-73
2023/07/10 08:11:18;;;;;;;6.23;5.40;;;34.00;36.50;;;;;;20524;6841;308394;-79
2023/07/10 08:13:44;;;;;;;5.67;5.17;;;34.20;36.60;;;;;;20716;6841;122990;-72
2023/07/10 08:16:10;;;;;;;5.60;5.20;;;34.10;35.80;;;;;;20729;6841;117348;-72
2023/07/10 08:18:36;;;;;;;5.97;5.47;;;34.10;36.90;;;;;;20517;6841;308544;-72
2023/07/10 08:21:04;;;;;;;5.00;4.60;;;34.40;35.80;;;;;;20726;6841;123529;-72
2023/07/10 08:23:30;;;;;;;5.37;4.90;;;34.50;36.00;;;;;;20720;6841;117719;-73
2023/07/10 08:25:55;;;;;;;5.87;5.35;;;34.40;35.90;;;;;;20508;6841;277777;-77
2023/07/10 08:28:21;;;;;;;7.47;5.00;;;34.70;35.90;;;;;;20730;6841;119950;-72
2023/07/10 08:30:47;;;;;;;5.50;5.10;;;34.70;35.50;;;;;;20724;6841;119289;-73
2023/07/10 08:33:14;;;;;;;5.78;5.05;;;34.70;35.50;;;;;;20514;6841;307958;-73
2023/07/10 08:35:39;;;;;;;5.53;5.10;;;35.00;34.80;;;;;;20726;6841;117170;-74
2023/07/10 08:38:06;;;;;;;6.12;5.30;;;35.30;34.00;;;;;;20506;6841;333305;-76
2023/07/10 08:40:38;;;;;;;5.67;5.17;;;35.40;34.00;;;;;;20723;6841;119783;-74
2023/07/10 08:43:23;;;;;;;5.30;4.90;;;35.50;34.30;;;;;;20713;6841;117979;-73
2023/07/10 08:45:49;;;;;;;4.73;4.43;;;35.40;34.50;;;;;;20708;6841;129770;-74
2023/07/10 08:48:15;;;;;;;5.30;4.85;;;35.80;33.90;;;;;;20515;6841;342029;-73
2023/07/10 08:50:41;;;;;;;9.37;4.87;;;35.80;33.80;;;;;;19983;6841;119353;-75
2023/07/10 08:53:16;;;;;;;5.63;4.70;;;35.90;33.60;;;;;;20725;6839;119356;-74
2023/07/10 08:55:43;;;;;;;4.80;4.40;;;35.90;33.70;;;;;;20705;6840;117614;-75
2023/07/10 08:58:18;;;;;;;4.97;4.57;;;35.80;33.70;;;;;;20517;6840;337029;-75
2023/07/10 09:00:44;;;;;;;7.63;4.57;;;36.20;33.00;;;;;;20651;6840;120342;-76
2023/07/10 09:03:40;;;;;;;5.22;4.60;;;36.70;32.40;;;;;;20519;6840;307500;-76
2023/07/10 09:06:05;;;;;;;5.20;4.37;;;36.60;32.30;;;;;;20708;6840;118213;-77
2023/07/10 09:08:34;;;;;;;4.90;4.37;;;36.80;32.30;;;;;;20501;6840;308811;-76
2023/07/10 09:10:59;;;;;;;4.70;4.30;;;37.00;31.30;;;;;;20735;6840;119843;-76
2023/07/10 09:13:46;;;;;;;5.43;4.70;;;37.40;30.90;;;;;;20513;6841;307217;-76
2023/07/10 09:16:14;;;;;;;5.27;4.70;;;37.30;30.80;;;;;;20506;6841;310246;-76
2023/07/10 09:18:53;;;;;;;5.20;4.50;;;37.70;30.30;;;;;;20717;6841;117022;-76
2023/07/10 09:21:19;;;;;;;5.53;4.77;;;37.70;30.70;;;;;;20690;6841;120800;-76
2023/07/10 09:23:45;;;;;;;5.10;4.63;;;37.30;31.10;;;;;;20707;6841;117777;-75
2023/07/10 09:26:11;;;;;;;5.27;4.87;;;37.00;31.30;;;;;;20726;6841;117275;-74
2023/07/10 09:28:40;;;;;;;5.40;5.00;;;36.70;31.60;;;;;;20514;6841;307488;-76
2023/07/10 09:31:12;;;;;;;5.50;5.00;;;36.80;31.50;;;;;;20515;6841;282771;-76
2023/07/10 09:33:51;;;;;;;5.30;4.80;;;37.00;32.00;;;;;;20728;6841;117164;-76
2023/07/10 09:36:16;;;;;;;5.57;5.07;;;37.00;32.10;;;;;;20510;6841;308394;-76
2023/07/10 09:38:44;;;;;;;5.60;5.10;;;37.40;31.70;;;;;;20505;6841;312110;-76
2023/07/10 09:41:11;;;;;;;5.37;4.80;;;37.40;31.70;;;;;;20503;6841;341678;-76
2023/07/10 09:43:37;;;;;;;5.78;5.18;;;37.70;31.00;;;;;;20511;6841;308001;-75
2023/07/10 09:46:02;;;;;;;5.10;4.80;;;37.90;30.80;;;;;;20731;6841;117639;-75
2023/07/10 09:48:34;;;;;;;5.03;4.63;;;37.90;30.70;;;;;;20729;6841;117447;-75
2023/07/10 09:51:03;;;;;;;4.83;4.43;;;37.70;31.10;;;;;;20714;6841;117220;-76
2023/07/10 09:53:32;;;;;;;5.40;4.93;;;37.60;31.30;;;;;;20505;6841;278488;-81
2023/07/10 09:55:59;;;;;;;5.20;4.80;;;37.50;30.80;;;;;;20466;6841;307081;-79
2023/07/10 09:58:25;;;;;;;4.57;4.22;;;37.70;30.30;;;;;;20727;6841;117820;-76
2023/07/10 10:00:50;;;;;;;5.43;5.00;;;37.70;30.50;;;;;;20726;6841;120967;-81
2023/07/10 10:03:25;;;;;;;5.30;4.90;;;37.50;30.50;;;;;;20518;6839;318138;-82
2023/07/10 10:05:51;;;;;;;5.25;4.80;;;37.70;30.80;;;;;;20476;6840;277983;-80
2023/07/10 10:08:28;;;;;;;5.20;4.70;;;37.90;30.70;;;;;;20523;6840;278542;-84
2023/07/10 10:11:07;;;;;;;5.15;4.75;;;38.10;30.50;;;;;;20516;6840;307144;-81
2023/07/10 10:13:32;;;;;;;5.20;4.70;;;38.20;30.20;;;;;;20515;6840;308299;-83
2023/07/10 10:16:06;;;;;;;5.43;4.93;;;38.20;29.90;;;;;;20681;6840;117204;-85
2023/07/10 10:18:52;;;;;;;5.10;4.70;;;37.90;29.80;;;;;;20691;6840;117016;-77
2023/07/10 10:21:17;;;;;;;4.87;4.57;;;37.90;30.10;;;;;;20301;6840;119962;-79
2023/07/10 10:23:42;;;;;;;5.32;4.80;;;37.50;30.40;;;;;;20490;6841;311628;-75
2023/07/10 10:26:11;;;;;;;4.80;4.27;;;37.50;30.50;;;;;;20722;6841;117123;-77
2023/07/10 10:28:38;;;;;;;5.30;4.80;;;37.40;30.60;;;;;;20482;6841;278231;-75
2023/07/10 10:31:05;;;;;;;5.37;4.97;;;37.50;30.60;;;;;;20473;6841;306855;-75
2023/07/10 10:33:30;;;;;;;6.20;4.97;;;37.70;30.50;;;;;;20732;6841;117622;-79
2023/07/10 10:35:56;;;;;;;5.45;4.95;;;37.70;30.50;;;;;;20456;6841;307622;-76
2023/07/10 10:38:35;;;;;;;5.27;4.87;;;37.70;31.10;;;;;;20518;6841;306087;-80
2023/07/10 10:41:16;;;;;;;5.00;4.60;;;38.00;30.50;;;;;;20710;6841;119829;-77
2023/07/10 10:43:42;;;;;;;5.00;4.70;;;38.00;30.80;;;;;;20711;6841;117190;-80
2023/07/10 10:46:34;;;;;;;5.30;4.80;;;37.80;30.80;;;;;;20706;6841;117288;-80
2023/07/10 10:49:13;;;;;;;5.13;4.77;;;37.70;31.00;;;;;;20714;6841;117599;-79
2023/07/10 10:51:51;;;;;;;5.20;4.80;;;37.50;31.10;;;;;;20466;6841;309495;-79
2023/07/10 10:54:17;;;;;;;4.70;4.40;;;37.70;30.90;;;;;;20108;6841;123353;-76
2023/07/10 10:56:43;;;;;;;5.87;4.80;;;37.70;30.80;;;;;;20499;6841;277996;-75
2023/07/10 10:59:35;;;;;;;5.23;4.80;;;37.90;30.50;;;;;;20508;6841;316199;-81
2023/07/10 11:02:20;;;;;;;5.57;4.90;;;38.30;30.40;;;;;;20497;6841;296534;-76
2023/07/10 11:04:46;;;;;;;5.53;4.97;;;38.90;29.40;;;;;;20468;6841;278153;-75
2023/07/10 11:07:12;;;;;;;4.87;4.57;;;38.90;29.40;;;;;;20718;6841;118792;-77
2023/07/10 11:09:47;;;;;;;5.30;4.90;;;38.80;29.50;;;;;;20507;6841;281513;-82
2023/07/10 11:12:14;;;;;;;5.53;4.93;;;38.80;29.60;;;;;;20742;6841;70925;-80
2023/07/10 11:14:40;;;;;;;5.77;4.70;;;38.80;29.20;;;;;;20505;6839;310925;-77
2023/07/10 11:17:07;;;;;;;6.70;4.70;;;38.90;29.00;;;;;;20730;6840;117406;-80
2023/07/10 11:19:34;;;;;;;5.57;5.10;;;38.80;29.20;;;;;;20721;6840;117187;-81
2023/07/10 11:22:26;;;;;;;6.17;4.73;;;38.60;29.50;;;;;;20712;6840;117022;-82
2023/07/10 11:24:52;;;;;;;5.47;4.73;;;38.40;29.70;;;;;;20677;6840;117292;-78
2023/07/10 11:27:27;;;;;;;6.07;5.00;;;38.20;29.60;;;;;;20489;6840;278122;-81
2023/07/10 11:29:52;;;;;;;6.43;5.17;;;38.30;29.80;;;;;;20464;6840;307897;-77
2023/07/10 11:32:28;;;;;;;5.70;5.15;;;38.70;30.00;;;;;;20375;6840;291146;-79
2023/07/10 11:35:14;;;;;;;5.67;5.17;;;38.90;29.70;;;;;;20646;6841;117042;-77
2023/07/10 11:38:06;;;;;;;5.62;4.90;;;38.80;29.90;;;;;;20510;6841;337211;-76
2023/07/10 11:40:31;;;;;;;5.27;4.90;;;38.90;30.00;;;;;;20685;6841;117536;-78
2023/07/10 11:43:00;;;;;;;7.37;5.03;;;38.70;29.60;;;;;;20736;6841;117569;-77
2023/07/10 11:45:36;;;;;;;5.97;5.10;;;38.70;29.70;;;;;;20641;6841;117391;-76
2023/07/10 11:48:01;;;;;;;5.30;4.90;;;38.50;29.70;;;;;;20468;6841;308425;-80
2023/07/10 11:50:27;;;;;;;5.30;4.90;;;38.70;29.20;;;;;;20717;6841;123369;-73
2023/07/10 11:53:19;;;;;;;5.97;4.80;;;38.50;29.00;;;;;;20718;6841;117095;-76
2023/07/10 11:56:02;;;;;;;6.40;5.03;;;37.90;29.40;;;;;;20707;6841;117781;-76
2023/07/10 11:58:48;;;;;;;5.27;4.83;;;37.90;29.40;;;;;;20516;6841;311750;-79
2023/07/10 12:01:23;;;;;;;4.77;4.37;;;38.10;29.50;;;;;;20806;6770;116903;-74
2023/07/10 12:03:59;;;;;;;5.90;4.67;;;38.10;29.50;;;;;;20910;6684;117752;-72
2023/07/10 12:06:34;;;;;;;5.57;5.07;;;38.10;29.90;;;;;;20932;6694;118006;-72
2023/07/10 12:09:10;;;;;;;5.20;4.90;;;38.00;30.10;;;;;;20929;6699;116728;-71
2023/07/10 12:11:48;;;;;;;5.60;5.10;;;37.90;29.90;;;;;;20656;6696;336010;-73
2023/07/10 12:14:23;;;;;;;5.03;4.70;;;38.20;29.70;;;;;;20847;6726;116922;-74
2023/07/10 12:16:59;;;;;;;4.97;4.60;;;38.30;29.40;;;;;;20855;6726;117289;-72
2023/07/10 12:19:35;;;;;;;5.50;4.80;;;38.40;27.60;;;;;;20680;6711;275544;-73
2023/07/10 12:22:18;;;;;;;5.17;4.77;;;38.30;27.50;;;;;;20580;6699;278781;-72
2023/07/10 12:24:54;;;;;;;4.70;4.30;;;38.60;26.20;;;;;;20701;6699;334256;-71
2023/07/10 12:27:32;;;;;;;4.67;4.07;;;38.70;25.20;;;;;;20886;6714;116819;-73
2023/07/10 12:30:14;;;;;;;4.47;4.13;;;38.50;25.30;;;;;;20825;6698;120719;-75
2023/07/10 12:32:52;;;;;;;4.47;4.17;;;38.30;25.60;;;;;;20662;6770;119949;-76
2023/07/10 12:35:39;;;;;;;5.00;4.70;;;38.00;25.50;;;;;;20650;6702;305264;-74
2023/07/10 12:38:16;;;;;;;4.83;4.53;;;38.10;25.30;;;;;;20867;6699;118014;-75
2023/07/10 12:40:53;;;;;;;5.03;4.63;;;38.20;25.50;;;;;;20917;6699;116968;-75
2023/07/10 12:43:28;;;;;;;5.10;4.70;;;38.00;25.60;;;;;;20633;6773;121243;-72